METAR Data
IDs: Format: Raw Decoded Include TAF

Data at: 1457 UTC 26 Sep 2021

METAR for:TIST (St Thomas/King Arpt, VI, US)
Text:TIST 261453Z 13009KT 10SM CLR 31/24 A2999 RMK AO2 SLP156 T03060244 50004
Temperature: 30.6°C ( 87°F)
Dewpoint: 24.4°C ( 76°F) [RH = 70%]
Pressure (altimeter):29.99 inches Hg (1015.7 mb) [Sea level pressure: 1015.6 mb]
Winds:from the SE (130 degrees) at 10 MPH (9 knots; 4.6 m/s)
Visibility:10 or more sm (16+ km)
Ceiling:at least 12,000 feet AGL
Clouds:sky clear below 12,000 feet AGL